createdAt,value
2023-01-29T00:03:45.532Z,99878.44
2023-01-29T00:08:47.517Z,99877.45
2023-01-29T00:13:53.770Z,99878.00
2023-01-29T00:18:55.589Z,99879.70
2023-01-29T00:23:57.401Z,99888.52
2023-01-29T00:29:00.742Z,99887.27
2023-01-29T00:34:04.278Z,99891.39
2023-01-29T00:39:10.917Z,99894.88
2023-01-29T00:44:31.866Z,99898.37
2023-01-29T00:49:33.568Z,99902.76
2023-01-29T00:54:36.269Z,99907.20
2023-01-29T00:59:38.173Z,99915.19
2023-01-29T01:04:40.104Z,99922.30
2023-01-29T01:10:00.713Z,99924.36
2023-01-29T01:15:02.507Z,99932.11
2023-01-29T01:20:05.385Z,99925.89
2023-01-29T01:25:07.450Z,99913.83
2023-01-29T01:30:13.025Z,99913.50
2023-01-29T01:35:15.176Z,99911.10
2023-01-29T01:40:20.165Z,99900.48
2023-01-29T01:45:31.449Z,99901.92
2023-01-29T01:50:38.664Z,99896.10
2023-01-29T01:55:59.239Z,99895.33
2023-01-29T02:01:01.724Z,99890.86
2023-01-29T02:06:23.227Z,99875.23
2023-01-29T02:11:25.387Z,99872.89
2023-01-29T02:16:27.383Z,99881.37
2023-01-29T02:21:55.066Z,99876.04
2023-01-29T02:27:12.441Z,99872.20
2023-01-29T02:32:26.418Z,99863.05
2023-01-29T02:38:14.319Z,99850.20
2023-01-29T02:43:51.713Z,99846.19
2023-01-29T02:49:16.338Z,99859.30
2023-01-29T02:54:31.355Z,99864.34
2023-01-29T02:59:39.398Z,99869.87
2023-01-29T03:04:47.015Z,99876.27
2023-01-29T03:09:52.075Z,99871.92
2023-01-29T03:15:12.103Z,99869.57
2023-01-29T03:20:19.616Z,99872.92
2023-01-29T03:25:42.618Z,99875.70
2023-01-29T03:31:10.793Z,99879.19
2023-01-29T03:36:38.066Z,99882.31
2023-01-29T03:41:50.398Z,99877.63
2023-01-29T03:47:13.703Z,99873.21
2023-01-29T03:52:18.570Z,99865.05
2023-01-29T03:57:31.805Z,99855.36
2023-01-29T04:02:49.244Z,99852.50
2023-01-29T04:07:57.260Z,99848.61
2023-01-29T04:13:04.278Z,99847.95
2023-01-29T04:18:06.849Z,99848.40
2023-01-29T04:23:25.799Z,99843.41
2023-01-29T04:28:50.408Z,99828.09
2023-01-29T04:34:26.131Z,99819.06
2023-01-29T04:39:40.111Z,99798.43
2023-01-29T04:44:54.444Z,99788.27
2023-01-29T04:50:06.605Z,99792.93
2023-01-29T04:55:21.407Z,99786.02
2023-01-29T05:00:46.667Z,99769.93
2023-01-29T05:05:50.577Z,99771.52
2023-01-29T05:10:54.719Z,99779.67
2023-01-29T05:15:59.592Z,99787.84
2023-01-29T05:21:05.944Z,99786.21
2023-01-29T05:26:07.675Z,99785.35
2023-01-29T05:31:09.763Z,99794.03
2023-01-29T05:36:11.509Z,99789.00
2023-01-29T05:41:13.279Z,99795.25
2023-01-29T05:46:15.003Z,99784.80
2023-01-29T05:51:16.738Z,99785.31
2023-01-29T05:56:18.654Z,99792.91
2023-01-29T06:01:25.139Z,99794.59
2023-01-29T06:06:26.869Z,99799.11
2023-01-29T06:11:29.344Z,99800.98
2023-01-29T06:16:31.168Z,99802.41
2023-01-29T06:21:32.892Z,99808.23
2023-01-29T06:26:34.689Z,99803.98
2023-01-29T06:31:39.231Z,99813.86
2023-01-29T06:36:41.959Z,99819.48
2023-01-29T06:41:45.365Z,99822.00
2023-01-29T06:46:47.016Z,99824.38
2023-01-29T06:51:48.709Z,99827.84
2023-01-29T06:56:51.996Z,99831.13
2023-01-29T07:01:53.685Z,99835.38
2023-01-29T07:06:55.525Z,99832.91
2023-01-29T07:11:57.283Z,99833.21
2023-01-29T07:16:59.117Z,99835.48
2023-01-29T07:22:02.564Z,99841.34
2023-01-29T07:27:04.394Z,99845.73
2023-01-29T07:32:07.889Z,99845.08
2023-01-29T07:37:09.533Z,99843.85
2023-01-29T07:42:11.228Z,99842.58
2023-01-29T07:47:13.021Z,99850.65
2023-01-29T07:52:14.657Z,99851.27
2023-01-29T07:57:16.337Z,99857.46
2023-01-29T08:02:18.068Z,99864.14
2023-01-29T08:07:19.747Z,99871.71
2023-01-29T08:12:21.473Z,99872.11
2023-01-29T08:17:23.187Z,99876.80
2023-01-29T08:22:24.943Z,99860.65
2023-01-29T08:27:26.787Z,99862.88
2023-01-29T08:32:28.478Z,99875.19
2023-01-29T08:37:30.167Z,99888.96
2023-01-29T08:42:31.882Z,99886.70
2023-01-29T08:47:33.605Z,99883.73
2023-01-29T08:52:35.343Z,99890.54
2023-01-29T08:57:38.672Z,99887.81
2023-01-29T09:02:40.484Z,99880.92
2023-01-29T09:07:42.464Z,99869.34
2023-01-29T09:12:44.220Z,99856.56
2023-01-29T09:17:46.841Z,99848.34
2023-01-29T09:22:50.623Z,99841.91
2023-01-29T09:27:54.336Z,99841.64
2023-01-29T09:32:56.082Z,99846.91
2023-01-29T09:37:57.989Z,99860.23
2023-01-29T09:43:16.790Z,99861.11
2023-01-29T09:48:20.123Z,99860.95
2023-01-29T09:53:32.648Z,99853.23
2023-01-29T09:58:37.929Z,99852.52
2023-01-29T10:04:13.739Z,99842.30
2023-01-29T10:09:27.461Z,99830.32
2023-01-29T10:14:39.486Z,99814.81
2023-01-29T10:20:02.555Z,99809.59
2023-01-29T10:25:09.183Z,99789.80
2023-01-29T10:30:38.514Z,99772.55
2023-01-29T10:35:55.896Z,99756.33
2023-01-29T10:41:04.447Z,99751.91
2023-01-29T10:46:14.345Z,99742.69
2023-01-29T10:51:38.714Z,99732.71
2023-01-29T10:57:11.432Z,99723.86
2023-01-29T11:02:17.800Z,99720.14
2023-01-29T11:07:23.225Z,99716.27
2023-01-29T11:12:30.960Z,99698.46
2023-01-29T11:17:32.884Z,99695.84
2023-01-29T11:22:34.560Z,99681.53
2023-01-29T11:27:44.257Z,99676.67
2023-01-29T11:32:51.861Z,99668.58
2023-01-29T11:38:07.293Z,99657.68
2023-01-29T11:43:18.191Z,99652.63
2023-01-29T11:48:23.104Z,99650.88
2023-01-29T11:53:36.541Z,99649.85
2023-01-29T11:58:41.864Z,99647.21
2023-01-29T12:03:55.021Z,99647.99
2023-01-29T12:09:00.169Z,99640.73
2023-01-29T12:14:05.750Z,99636.19
2023-01-29T12:19:07.434Z,99634.96
2023-01-29T12:24:28.484Z,99627.15
2023-01-29T12:30:03.833Z,99629.02
2023-01-29T12:35:16.431Z,99614.95
2023-01-29T12:40:20.298Z,99607.77
2023-01-29T12:45:25.018Z,99603.20
2023-01-29T12:50:30.015Z,99596.56
2023-01-29T12:55:44.331Z,99601.55
2023-01-29T13:00:51.384Z,99599.48
2023-01-29T13:05:57.225Z,99584.48
2023-01-29T13:11:04.317Z,99576.14
2023-01-29T13:16:12.326Z,99566.73
2023-01-29T13:21:19.278Z,99564.33
2023-01-29T13:26:22.496Z,99572.25
2023-01-29T13:31:33.056Z,99573.91
2023-01-29T13:36:41.076Z,99570.96
2023-01-29T13:41:43.711Z,99549.91
2023-01-29T13:46:51.708Z,99546.77
2023-01-29T13:51:54.111Z,99536.86
2023-01-29T13:56:55.732Z,99528.86
2023-01-29T14:02:03.796Z,99523.65
2023-01-29T14:07:43.913Z,99525.23
2023-01-29T14:12:46.589Z,99529.00
2023-01-29T14:18:21.167Z,99525.88
2023-01-29T14:23:25.249Z,99525.89
2023-01-29T14:28:30.725Z,99524.81
2023-01-29T14:33:39.161Z,99521.81
2023-01-29T14:38:48.664Z,99526.82
2023-01-29T14:43:50.472Z,99533.52
2023-01-29T14:48:53.208Z,99526.65
2023-01-29T14:54:06.444Z,99518.77
2023-01-29T14:59:20.078Z,99517.73
2023-01-29T15:04:29.840Z,99526.84
2023-01-29T15:09:36.857Z,99536.48
2023-01-29T15:14:46.953Z,99536.08
2023-01-29T15:19:49.775Z,99528.14
2023-01-29T15:25:14.865Z,99520.12
2023-01-29T15:30:23.651Z,99518.92
2023-01-29T15:35:30.976Z,99517.45
2023-01-29T15:40:34.240Z,99520.32
2023-01-29T15:45:40.807Z,99507.46
2023-01-29T15:50:43.508Z,99510.06
2023-01-29T15:55:47.464Z,99487.34
2023-01-29T16:00:54.427Z,99483.74
2023-01-29T16:05:56.815Z,99476.05
2023-01-29T16:11:01.864Z,99472.13
2023-01-29T16:16:04.880Z,99476.76
2023-01-29T16:21:12.907Z,99474.46
2023-01-29T16:26:19.866Z,99470.99
2023-01-29T16:31:28.943Z,99463.86
2023-01-29T16:36:31.088Z,99459.05
2023-01-29T16:41:39.009Z,99462.10
2023-01-29T16:46:53.076Z,99466.85
2023-01-29T16:51:56.505Z,99476.73
2023-01-29T16:57:00.398Z,99480.66
2023-01-29T17:02:03.635Z,99472.02
2023-01-29T17:07:05.345Z,99473.18
2023-01-29T17:12:16.688Z,99472.48
2023-01-29T17:17:18.941Z,99470.77
2023-01-29T17:22:20.578Z,99473.77
2023-01-29T17:27:23.195Z,99464.36
2023-01-29T17:32:25.596Z,99457.09
2023-01-29T17:37:45.999Z,99455.70
2023-01-29T17:42:48.882Z,99449.42
2023-01-29T17:47:50.771Z,99443.48
2023-01-29T17:52:53.864Z,99430.84
2023-01-29T17:57:55.605Z,99420.07
2023-01-29T18:02:58.122Z,99418.52
2023-01-29T18:07:59.885Z,99417.23
2023-01-29T18:13:01.942Z,99423.34
2023-01-29T18:18:04.999Z,99424.29
2023-01-29T18:23:08.307Z,99419.76
2023-01-29T18:28:14.879Z,99411.62
2023-01-29T18:33:18.516Z,99406.73
2023-01-29T18:38:23.034Z,99401.75
2023-01-29T18:43:26.313Z,99402.67
2023-01-29T18:48:29.663Z,99406.59
2023-01-29T18:53:33.533Z,99410.30
2023-01-29T18:58:36.909Z,99414.80
2023-01-29T19:03:40.525Z,99412.67
2023-01-29T19:08:43.247Z,99406.24
2023-01-29T19:13:46.261Z,99398.80
2023-01-29T19:18:48.549Z,99392.79
2023-01-29T19:23:50.265Z,99390.20
2023-01-29T19:28:52.220Z,99380.73
2023-01-29T19:33:54.309Z,99375.42
2023-01-29T19:38:56.706Z,99380.09
2023-01-29T19:43:59.102Z,99377.98
2023-01-29T19:49:00.917Z,99387.58
2023-01-29T19:54:02.671Z,99386.69
2023-01-29T19:59:07.511Z,99372.38
2023-01-29T20:04:29.482Z,99366.88
2023-01-29T20:09:31.451Z,99364.77
2023-01-29T20:14:33.121Z,99364.43
2023-01-29T20:19:34.904Z,99361.69
2023-01-29T20:24:39.555Z,99356.70
2023-01-29T20:29:41.557Z,99353.46
2023-01-29T20:34:43.432Z,99353.36
2023-01-29T20:39:45.382Z,99356.04
2023-01-29T20:44:47.316Z,99360.61
2023-01-29T20:49:49.125Z,99349.23
2023-01-29T20:54:50.854Z,99345.82
2023-01-29T20:59:52.899Z,99331.15
2023-01-29T21:04:55.033Z,99323.38
2023-01-29T21:09:56.752Z,99303.19
2023-01-29T21:14:58.514Z,99295.12
2023-01-29T21:20:00.202Z,99291.05
2023-01-29T21:25:01.993Z,99278.70
2023-01-29T21:30:04.872Z,99276.42
2023-01-29T21:35:08.117Z,99272.81
2023-01-29T21:40:11.034Z,99265.27
2023-01-29T21:45:12.843Z,99254.73
2023-01-29T21:50:14.899Z,99250.52
2023-01-29T21:55:17.068Z,99246.05
2023-01-29T22:00:19.494Z,99236.73
2023-01-29T22:05:21.414Z,99228.33
2023-01-29T22:10:23.430Z,99227.13
2023-01-29T22:15:26.772Z,99217.59
2023-01-29T22:20:30.739Z,99201.30
2023-01-29T22:25:33.490Z,99194.35
2023-01-29T22:30:35.254Z,99193.52
2023-01-29T22:35:37.331Z,99179.67
2023-01-29T22:40:39.207Z,99174.28
2023-01-29T22:45:41.066Z,99164.50
2023-01-29T22:50:42.752Z,99154.27
2023-01-29T22:55:44.443Z,99153.45
2023-01-29T23:00:50.121Z,99151.19
2023-01-29T23:05:51.918Z,99140.55
2023-01-29T23:10:53.999Z,99129.09
2023-01-29T23:15:59.664Z,99120.77
2023-01-29T23:21:01.933Z,99110.08
2023-01-29T23:26:24.480Z,99104.29
2023-01-29T23:31:26.584Z,99087.53
2023-01-29T23:36:28.582Z,99070.61
2023-01-29T23:41:30.543Z,99061.50
2023-01-29T23:46:32.617Z,99046.88
2023-01-29T23:51:34.588Z,99037.98
2023-01-29T23:56:36.252Z,99031.02
